createdAt,value
2022-08-14T00:01:14.726Z,60.50
2022-08-14T00:03:50.960Z,60.80
2022-08-14T00:06:29.087Z,61.20
2022-08-14T00:08:59.230Z,61.40
2022-08-14T00:11:33.697Z,61.50
2022-08-14T00:14:02.077Z,61.50
2022-08-14T00:16:41.418Z,61.50
2022-08-14T00:19:19.617Z,61.40
2022-08-14T00:21:58.705Z,61.50
2022-08-14T00:24:32.715Z,61.60
2022-08-14T00:27:02.820Z,61.70
2022-08-14T00:29:30.834Z,61.70
2022-08-14T00:32:55.678Z,61.60
2022-08-14T00:35:07.670Z,61.40
2022-08-14T00:37:47.725Z,61.30
2022-08-14T00:40:27.399Z,61.20
2022-08-14T00:43:08.009Z,61.00
2022-08-14T00:45:35.514Z,60.90
2022-08-14T00:48:03.756Z,60.80
2022-08-14T00:50:37.772Z,60.80
2022-08-14T00:53:05.345Z,60.70
2022-08-14T00:55:48.756Z,60.70
2022-08-14T00:58:44.921Z,60.80
2022-08-14T01:01:21.958Z,60.80
2022-08-14T01:03:55.695Z,60.90
2022-08-14T01:06:23.709Z,61.10
2022-08-14T01:09:04.700Z,61.30
2022-08-14T01:11:35.375Z,61.60
2022-08-14T01:14:18.197Z,61.60
2022-08-14T01:16:57.713Z,61.90
2022-08-14T01:19:50.691Z,61.80
2022-08-14T01:22:20.887Z,61.90
2022-08-14T01:25:00.701Z,62.20
2022-08-14T01:27:30.298Z,62.30
2022-08-14T01:30:10.747Z,62.10
2022-08-14T01:32:51.231Z,62.20
2022-08-14T01:36:02.809Z,62.20
2022-08-14T01:38:15.307Z,62.40
2022-08-14T01:40:53.696Z,62.30
2022-08-14T01:43:22.116Z,62.30
2022-08-14T01:46:06.493Z,62.50
2022-08-14T01:48:37.621Z,62.70
2022-08-14T01:51:20.126Z,62.90
2022-08-14T01:53:50.400Z,63.00
2022-08-14T01:56:30.607Z,62.80
2022-08-14T01:59:39.766Z,62.60
2022-08-14T02:02:20.795Z,62.60
2022-08-14T02:04:57.202Z,62.70
2022-08-14T02:07:53.451Z,62.70
2022-08-14T02:10:18.686Z,62.90
2022-08-14T02:13:00.801Z,63.10
2022-08-14T02:15:28.790Z,63.40
2022-08-14T02:18:02.728Z,63.60
2022-08-14T02:20:32.272Z,63.70
2022-08-14T02:23:08.367Z,63.60
2022-08-14T02:25:36.393Z,63.70
2022-08-14T02:28:24.233Z,64.00
2022-08-14T02:30:57.398Z,64.00
2022-08-14T02:33:33.724Z,64.00
2022-08-14T02:37:02.417Z,64.00
2022-08-14T02:38:59.722Z,64.00
2022-08-14T02:41:28.803Z,64.00
2022-08-14T02:44:02.723Z,64.10
2022-08-14T02:46:32.170Z,64.20
2022-08-14T02:49:06.771Z,64.30
2022-08-14T02:51:34.259Z,64.20
2022-08-14T02:54:01.943Z,64.10
2022-08-14T02:57:13.946Z,64.10
2022-08-14T02:59:33.747Z,64.00
2022-08-14T03:02:09.161Z,64.00
2022-08-14T03:05:02.763Z,63.90
2022-08-14T03:07:29.757Z,63.80
2022-08-14T03:10:26.165Z,63.70
2022-08-14T03:12:51.053Z,63.70
2022-08-14T03:15:25.755Z,63.70
2022-08-14T03:17:57.876Z,63.70
2022-08-14T03:20:34.798Z,63.80
2022-08-14T03:23:03.016Z,63.70
2022-08-14T03:25:39.767Z,63.70
2022-08-14T03:28:33.176Z,63.90
2022-08-14T03:31:08.472Z,64.00
2022-08-14T03:33:51.879Z,64.20
2022-08-14T03:37:38.763Z,64.20
2022-08-14T03:39:22.893Z,64.20
2022-08-14T03:41:55.306Z,64.40
2022-08-14T03:45:20.281Z,64.50
2022-08-14T03:47:16.747Z,64.60
2022-08-14T03:49:52.777Z,64.60
2022-08-14T03:52:40.810Z,64.60
2022-08-14T03:55:20.742Z,64.60
2022-08-14T03:57:54.806Z,64.60
2022-08-14T04:00:44.375Z,64.70
2022-08-14T04:03:26.798Z,64.50
2022-08-14T04:05:56.100Z,64.40
2022-08-14T04:08:31.593Z,64.50
2022-08-14T04:11:01.658Z,64.40
2022-08-14T04:13:39.772Z,64.40
2022-08-14T04:16:13.014Z,64.40
2022-08-14T04:18:47.802Z,64.30
2022-08-14T04:21:16.237Z,64.10
2022-08-14T04:23:57.512Z,63.90
2022-08-14T04:26:42.997Z,63.80
2022-08-14T04:29:15.376Z,63.80
2022-08-14T04:32:58.391Z,63.70
2022-08-14T04:34:42.180Z,63.80
2022-08-14T04:37:34.803Z,63.70
2022-08-14T04:40:20.022Z,63.70
2022-08-14T04:43:14.319Z,63.60
2022-08-14T04:45:44.223Z,63.60
2022-08-14T04:48:39.292Z,63.40
2022-08-14T04:51:10.034Z,63.40
2022-08-14T04:53:46.788Z,63.50
2022-08-14T04:56:30.817Z,63.50
2022-08-14T04:59:12.763Z,63.50
2022-08-14T05:01:53.976Z,63.30
2022-08-14T05:04:31.817Z,63.30
2022-08-14T05:06:58.805Z,63.20
2022-08-14T05:09:32.783Z,63.20
2022-08-14T05:13:02.863Z,63.30
2022-08-14T05:14:54.960Z,63.20
2022-08-14T05:17:32.047Z,63.10
2022-08-14T05:21:54.259Z,63.20
2022-08-14T05:23:05.668Z,63.30
2022-08-14T05:25:44.796Z,63.40
2022-08-14T05:28:19.012Z,63.40
2022-08-14T05:30:54.784Z,63.40
2022-08-14T05:33:30.798Z,63.40
2022-08-14T05:36:01.599Z,63.50
2022-08-14T05:38:40.797Z,63.70
2022-08-14T05:41:13.088Z,63.90
2022-08-14T05:43:47.837Z,63.90
2022-08-14T05:46:23.927Z,64.00
2022-08-14T05:48:59.805Z,64.10
2022-08-14T05:51:27.492Z,64.10
2022-08-14T05:54:13.877Z,64.10
2022-08-14T05:56:47.788Z,64.20
2022-08-14T05:59:21.806Z,64.30
2022-08-14T06:02:11.228Z,64.40
2022-08-14T06:04:45.798Z,64.50
2022-08-14T06:07:12.722Z,64.30
2022-08-14T06:09:52.216Z,64.40
2022-08-14T06:12:55.086Z,64.20
2022-08-14T06:15:14.775Z,64.00
2022-08-14T06:17:56.633Z,63.80
2022-08-14T06:20:34.162Z,63.60
2022-08-14T06:23:01.435Z,63.60
2022-08-14T06:25:35.919Z,63.40
2022-08-14T06:28:03.998Z,63.40
2022-08-14T06:30:46.552Z,63.40
2022-08-14T06:33:15.727Z,63.50
2022-08-14T06:35:49.872Z,63.30
2022-08-14T06:38:21.645Z,63.30
2022-08-14T06:41:02.728Z,63.10
2022-08-14T06:43:33.111Z,63.00
2022-08-14T06:46:12.905Z,62.80
2022-08-14T06:48:50.630Z,62.90
2022-08-14T06:51:23.841Z,63.10
2022-08-14T06:53:50.900Z,63.00
2022-08-14T06:56:24.860Z,62.90
2022-08-14T06:58:51.801Z,62.80
2022-08-14T07:01:49.882Z,62.70
2022-08-14T07:04:41.843Z,62.80
2022-08-14T07:07:08.845Z,63.00
2022-08-14T07:09:50.949Z,62.90
2022-08-14T07:12:54.948Z,63.00
2022-08-14T07:15:14.237Z,63.00
2022-08-14T07:17:45.360Z,62.90
2022-08-14T07:20:19.861Z,63.00
2022-08-14T07:23:05.356Z,62.90
2022-08-14T07:25:43.712Z,62.90
2022-08-14T07:28:26.363Z,62.70
2022-08-14T07:31:05.839Z,62.70
2022-08-14T07:33:37.907Z,62.90
2022-08-14T07:36:27.528Z,62.90
2022-08-14T07:38:59.119Z,62.90
2022-08-14T07:41:33.825Z,62.70
2022-08-14T07:44:22.440Z,62.80
2022-08-14T07:46:56.122Z,62.80
2022-08-14T07:49:24.142Z,62.70
2022-08-14T07:51:59.045Z,62.70
2022-08-14T07:54:30.121Z,62.70
2022-08-14T07:57:12.656Z,62.70
2022-08-14T08:00:02.866Z,62.70
2022-08-14T08:02:45.985Z,62.60
2022-08-14T08:05:13.765Z,62.50
2022-08-14T08:07:49.366Z,62.60
2022-08-14T08:11:01.342Z,62.60
2022-08-14T08:13:28.586Z,62.80
2022-08-14T08:16:05.817Z,62.70
2022-08-14T08:18:33.258Z,62.60
2022-08-14T08:21:03.204Z,62.60
2022-08-14T08:23:40.757Z,62.50
2022-08-14T08:26:10.703Z,62.80
2022-08-14T08:28:44.116Z,63.00
2022-08-14T08:31:12.912Z,63.00
2022-08-14T08:33:49.827Z,63.00
2022-08-14T08:36:23.843Z,63.00
2022-08-14T08:39:17.531Z,63.00
2022-08-14T08:41:53.730Z,62.90
2022-08-14T08:44:32.824Z,62.90
2022-08-14T08:47:14.813Z,62.50
2022-08-14T08:49:59.020Z,62.40
2022-08-14T08:52:36.004Z,62.20
2022-08-14T08:55:13.741Z,62.00
2022-08-14T08:57:41.535Z,61.80
2022-08-14T09:00:26.463Z,61.90
2022-08-14T09:03:06.941Z,61.90
2022-08-14T09:05:46.032Z,61.80
2022-08-14T09:08:26.476Z,61.70
2022-08-14T09:11:19.308Z,61.70
2022-08-14T09:13:58.891Z,61.40
2022-08-14T09:16:26.282Z,61.40
2022-08-14T09:19:00.872Z,61.20
2022-08-14T09:21:33.370Z,61.10
2022-08-14T09:24:28.504Z,61.20
2022-08-14T09:27:09.689Z,61.00
2022-08-14T09:29:54.136Z,60.50
2022-08-14T09:32:58.924Z,60.20
2022-08-14T09:35:56.639Z,60.00
2022-08-14T09:38:40.452Z,58.90
2022-08-14T09:41:19.961Z,58.30
2022-08-14T09:44:06.405Z,58.20
2022-08-14T09:46:34.761Z,58.50
2022-08-14T09:49:16.245Z,58.60
2022-08-14T09:51:58.861Z,58.90
2022-08-14T09:54:47.993Z,59.00
2022-08-14T09:57:33.830Z,59.10
2022-08-14T10:00:30.386Z,59.30
2022-08-14T10:03:06.107Z,60.30
2022-08-14T10:05:41.863Z,60.90
2022-08-14T10:08:26.128Z,60.70
2022-08-14T10:11:02.715Z,60.30
2022-08-14T10:13:37.205Z,58.90
2022-08-14T10:16:33.231Z,58.20
2022-08-14T10:19:15.945Z,57.80
2022-08-14T10:21:58.836Z,57.20
2022-08-14T10:24:42.126Z,56.40
2022-08-14T10:27:19.466Z,55.60
2022-08-14T10:29:58.330Z,54.80
2022-08-14T10:32:29.255Z,54.00
2022-08-14T10:35:15.147Z,53.00
2022-08-14T10:37:48.704Z,52.70
2022-08-14T10:40:44.275Z,52.60
2022-08-14T10:43:24.924Z,52.10
2022-08-14T10:46:03.426Z,50.90
2022-08-14T10:49:01.873Z,50.80
2022-08-14T10:51:30.311Z,51.30
2022-08-14T10:54:35.112Z,51.50
2022-08-14T10:57:15.510Z,51.20
2022-08-14T10:59:54.910Z,51.00
2022-08-14T11:02:44.853Z,50.90
2022-08-14T11:05:26.855Z,50.40
2022-08-14T11:08:01.891Z,48.70
2022-08-14T11:11:02.860Z,47.80
2022-08-14T11:13:37.907Z,47.90
2022-08-14T11:16:05.214Z,47.90
2022-08-14T11:18:40.879Z,47.60
2022-08-14T11:21:09.374Z,47.20
2022-08-14T11:23:44.884Z,47.00
2022-08-14T11:26:19.260Z,46.50
2022-08-14T11:28:53.884Z,46.30
2022-08-14T11:31:38.610Z,45.20
2022-08-14T11:34:31.960Z,44.60
2022-08-14T11:37:20.806Z,44.60
2022-08-14T11:39:53.926Z,44.50
2022-08-14T11:42:58.114Z,44.30
2022-08-14T11:45:17.223Z,43.70
2022-08-14T11:48:13.003Z,43.20
2022-08-14T11:50:39.814Z,42.50
2022-08-14T11:53:13.894Z,42.10
2022-08-14T11:55:47.905Z,41.80
2022-08-14T11:58:24.884Z,41.80
2022-08-14T12:01:04.683Z,41.90
2022-08-14T12:03:51.693Z,42.00
2022-08-14T12:06:29.230Z,42.20
2022-08-14T12:09:15.126Z,42.50
2022-08-14T12:11:47.525Z,42.80
2022-08-14T12:14:31.067Z,43.10
2022-08-14T12:17:11.700Z,43.50
2022-08-14T12:19:54.077Z,43.90
2022-08-14T12:22:34.554Z,44.60
2022-08-14T12:25:11.365Z,45.40
2022-08-14T12:27:46.761Z,46.10
2022-08-14T12:30:39.695Z,46.40
2022-08-14T12:33:30.633Z,46.80
2022-08-14T12:36:07.955Z,47.10
2022-08-14T12:38:38.541Z,47.40
2022-08-14T12:41:24.120Z,47.60
2022-08-14T12:43:59.583Z,47.90
2022-08-14T12:46:35.954Z,48.40
2022-08-14T12:49:06.465Z,48.70
2022-08-14T12:51:42.725Z,49.30
2022-08-14T12:54:26.064Z,49.70
2022-08-14T12:57:18.759Z,50.20
2022-08-14T12:59:53.910Z,50.80
2022-08-14T13:02:54.988Z,51.20
2022-08-14T13:05:33.399Z,51.30
2022-08-14T13:08:10.665Z,50.60
2022-08-14T13:10:58.234Z,49.90
2022-08-14T13:13:44.611Z,49.60
2022-08-14T13:16:38.132Z,48.90
2022-08-14T13:19:14.951Z,48.60
2022-08-14T13:22:04.779Z,48.10
2022-08-14T13:24:39.451Z,47.80
2022-08-14T13:27:13.905Z,46.90
2022-08-14T13:29:47.173Z,46.40
2022-08-14T13:32:21.996Z,46.20
2022-08-14T13:34:55.923Z,46.00
2022-08-14T13:37:23.835Z,46.30
2022-08-14T13:40:00.073Z,46.50
2022-08-14T13:42:30.483Z,46.90
2022-08-14T13:45:06.050Z,46.80
2022-08-14T13:47:33.348Z,46.90
2022-08-14T13:50:09.048Z,46.60
2022-08-14T13:53:03.649Z,46.20
2022-08-14T13:55:31.557Z,45.40
2022-08-14T13:58:30.050Z,45.20
2022-08-14T14:01:02.446Z,45.30
2022-08-14T14:03:42.013Z,45.40
2022-08-14T14:06:09.592Z,45.70
2022-08-14T14:08:48.063Z,46.10
2022-08-14T14:11:16.945Z,46.60
2022-08-14T14:13:50.946Z,47.10
2022-08-14T14:16:22.044Z,47.50
2022-08-14T14:19:09.444Z,47.90
2022-08-14T14:21:43.966Z,48.20
2022-08-14T14:24:17.935Z,48.60
2022-08-14T14:26:54.981Z,48.90
2022-08-14T14:29:36.797Z,48.90
2022-08-14T14:32:21.611Z,49.20
2022-08-14T14:34:55.965Z,49.30
2022-08-14T14:37:25.187Z,49.40
2022-08-14T14:40:52.184Z,49.60
2022-08-14T14:42:51.827Z,49.80
2022-08-14T14:45:27.956Z,49.80
2022-08-14T14:47:59.201Z,49.70
2022-08-14T14:50:32.972Z,49.40
2022-08-14T14:53:13.009Z,49.30
2022-08-14T14:56:47.342Z,49.20
2022-08-14T14:58:37.014Z,48.90
2022-08-14T15:01:12.089Z,48.60
2022-08-14T15:03:46.555Z,48.60
2022-08-14T15:06:20.986Z,48.70
2022-08-14T15:08:55.490Z,48.90
2022-08-14T15:11:31.878Z,49.10
2022-08-14T15:14:56.068Z,49.10
2022-08-14T15:16:52.889Z,49.10
2022-08-14T15:19:28.945Z,49.30
2022-08-14T15:21:56.263Z,49.40
2022-08-14T15:24:29.958Z,49.60
2022-08-14T15:26:58.745Z,49.60
2022-08-14T15:29:32.973Z,49.50
2022-08-14T15:32:01.219Z,49.40
2022-08-14T15:34:50.927Z,49.20
2022-08-14T15:37:25.969Z,49.00
2022-08-14T15:40:02.248Z,48.70
2022-08-14T15:42:37.053Z,48.60
2022-08-14T15:45:12.893Z,48.50
2022-08-14T15:47:51.738Z,48.60
2022-08-14T15:50:19.301Z,48.90
2022-08-14T15:52:53.982Z,49.20
2022-08-14T15:55:23.119Z,49.40
2022-08-14T15:58:03.193Z,49.60
2022-08-14T16:01:10.040Z,49.80
2022-08-14T16:03:46.851Z,49.90
2022-08-14T16:06:24.035Z,50.10
2022-08-14T16:08:57.688Z,50.20
2022-08-14T16:11:34.015Z,50.30
2022-08-14T16:14:10.964Z,50.30
2022-08-14T16:16:51.535Z,50.40
2022-08-14T16:19:27.682Z,50.50
2022-08-14T16:22:58.042Z,50.50
2022-08-14T16:25:02.669Z,50.50
2022-08-14T16:27:40.751Z,50.50
2022-08-14T16:30:24.878Z,50.50
2022-08-14T16:33:03.186Z,50.60
2022-08-14T16:35:55.648Z,50.60
2022-08-14T16:38:46.084Z,50.70
2022-08-14T16:41:33.029Z,50.80
2022-08-14T16:44:13.607Z,50.80
2022-08-14T16:46:57.968Z,50.80
2022-08-14T16:50:03.325Z,50.90
2022-08-14T16:52:25.975Z,50.90
2022-08-14T16:55:11.147Z,51.00
2022-08-14T16:58:04.020Z,51.10
2022-08-14T17:00:45.226Z,51.20
2022-08-14T17:03:18.995Z,51.40
2022-08-14T17:05:48.414Z,51.60
2022-08-14T17:08:33.330Z,51.80
2022-08-14T17:11:19.991Z,51.90
2022-08-14T17:14:00.544Z,52.00
2022-08-14T17:16:35.683Z,52.20
2022-08-14T17:19:14.076Z,52.30
2022-08-14T17:21:47.511Z,52.40
2022-08-14T17:24:51.683Z,52.50
2022-08-14T17:27:19.039Z,52.60
2022-08-14T17:29:56.672Z,52.70
2022-08-14T17:32:44.795Z,52.80
2022-08-14T17:35:38.939Z,52.90
2022-08-14T17:38:39.019Z,53.10
2022-08-14T17:41:37.447Z,53.20
2022-08-14T17:44:33.369Z,53.30
2022-08-14T17:47:07.068Z,53.50
2022-08-14T17:49:42.076Z,53.70
2022-08-14T17:52:19.010Z,53.90
2022-08-14T17:55:03.419Z,54.10
2022-08-14T17:57:41.224Z,54.30
2022-08-14T18:00:14.661Z,54.40
2022-08-14T18:02:56.050Z,54.50
2022-08-14T18:06:07.368Z,54.80
2022-08-14T18:08:32.460Z,55.10
2022-08-14T18:11:07.058Z,55.30
2022-08-14T18:13:51.946Z,55.60
2022-08-14T18:16:29.805Z,55.90
2022-08-14T18:19:04.005Z,56.30
2022-08-14T18:21:56.358Z,56.60
2022-08-14T18:24:31.654Z,56.80
2022-08-14T18:27:08.688Z,57.10
2022-08-14T18:29:54.745Z,57.40
2022-08-14T18:32:31.906Z,57.70
2022-08-14T18:35:11.231Z,58.10
2022-08-14T18:37:40.802Z,58.30
2022-08-14T18:40:33.426Z,58.60
2022-08-14T18:43:09.042Z,58.80
2022-08-14T18:45:46.046Z,58.90
2022-08-14T18:48:19.893Z,59.00
2022-08-14T18:50:58.094Z,59.20
2022-08-14T18:53:34.367Z,59.60
2022-08-14T18:56:09.939Z,59.70
2022-08-14T18:58:59.051Z,59.90
2022-08-14T19:01:34.216Z,60.20
2022-08-14T19:04:09.053Z,60.40
2022-08-14T19:06:44.746Z,60.50
2022-08-14T19:09:37.026Z,60.70
2022-08-14T19:12:07.545Z,60.80
2022-08-14T19:14:54.046Z,61.00
2022-08-14T19:17:41.487Z,61.20
2022-08-14T19:20:16.003Z,61.30
2022-08-14T19:22:43.366Z,61.40
2022-08-14T19:25:19.058Z,61.50
2022-08-14T19:28:09.876Z,61.60
2022-08-14T19:30:43.007Z,61.70
2022-08-14T19:33:34.579Z,61.70
2022-08-14T19:36:28.937Z,61.90
2022-08-14T19:39:04.063Z,61.90
2022-08-14T19:41:51.847Z,62.00
2022-08-14T19:44:31.911Z,62.00
2022-08-14T19:47:04.834Z,62.00
2022-08-14T19:50:30.312Z,62.10
2022-08-14T19:52:29.798Z,62.10
2022-08-14T19:55:05.032Z,62.20
2022-08-14T19:57:31.946Z,62.40
2022-08-14T20:00:28.716Z,62.60
2022-08-14T20:03:10.231Z,62.70
2022-08-14T20:05:46.818Z,62.70
2022-08-14T20:10:58.349Z,62.80
2022-08-14T20:11:20.538Z,62.90
2022-08-14T20:13:56.943Z,63.10
2022-08-14T20:16:59.436Z,63.20
2022-08-14T20:19:37.293Z,63.30
2022-08-14T20:22:37.146Z,63.40
2022-08-14T20:25:16.748Z,63.50
2022-08-14T20:27:58.718Z,63.60
2022-08-14T20:30:35.056Z,63.70
2022-08-14T20:33:13.063Z,63.80
2022-08-14T20:35:40.059Z,63.90
2022-08-14T20:38:30.348Z,63.90
2022-08-14T20:41:07.608Z,64.00
2022-08-14T20:44:06.539Z,64.00
2022-08-14T20:46:38.811Z,64.10
2022-08-14T20:49:13.027Z,64.10
2022-08-14T20:51:58.978Z,64.20
2022-08-14T20:54:34.123Z,64.30
2022-08-14T20:57:07.273Z,64.40
2022-08-14T20:59:47.146Z,64.40
2022-08-14T21:02:50.421Z,64.50
2022-08-14T21:05:34.086Z,64.60
2022-08-14T21:08:08.343Z,64.60
2022-08-14T21:10:56.674Z,64.60
2022-08-14T21:14:19.006Z,64.60
2022-08-14T21:16:35.802Z,64.70
2022-08-14T21:19:05.027Z,64.60
2022-08-14T21:21:41.755Z,64.60
2022-08-14T21:24:39.309Z,64.60
2022-08-14T21:27:13.075Z,64.70
2022-08-14T21:29:55.638Z,64.80
2022-08-14T21:32:33.648Z,64.90
2022-08-14T21:35:10.102Z,64.90
2022-08-14T21:37:44.074Z,65.00
2022-08-14T21:40:39.972Z,64.90
2022-08-14T21:43:18.378Z,65.20
2022-08-14T21:45:55.858Z,65.00
2022-08-14T21:48:29.406Z,65.20
2022-08-14T21:51:54.640Z,65.30
2022-08-14T21:53:58.633Z,65.60
2022-08-14T21:56:39.173Z,65.80
2022-08-14T21:59:23.361Z,65.90
2022-08-14T22:02:00.927Z,65.80
2022-08-14T22:04:46.091Z,65.60
2022-08-14T22:07:29.386Z,65.70
2022-08-14T22:09:58.558Z,65.80
2022-08-14T22:12:58.827Z,66.20
2022-08-14T22:15:26.062Z,66.30
2022-08-14T22:18:00.110Z,66.40
2022-08-14T22:20:29.269Z,66.50
2022-08-14T22:23:04.088Z,66.20
2022-08-14T22:25:41.128Z,66.00
2022-08-14T22:28:10.629Z,66.00
2022-08-14T22:30:44.155Z,66.00
2022-08-14T22:33:13.493Z,66.40
2022-08-14T22:35:56.438Z,66.50
2022-08-14T22:38:35.567Z,66.50
2022-08-14T22:41:25.465Z,66.30
2022-08-14T22:44:06.599Z,66.30
2022-08-14T22:46:43.285Z,66.50
2022-08-14T22:50:30.813Z,66.70
2022-08-14T22:52:32.000Z,67.00
2022-08-14T22:55:01.130Z,67.20
2022-08-14T22:57:37.346Z,67.30
2022-08-14T23:00:20.128Z,67.50
2022-08-14T23:03:17.184Z,67.50
2022-08-14T23:05:51.761Z,67.50
2022-08-14T23:08:56.276Z,67.30
2022-08-14T23:11:14.152Z,67.30
2022-08-14T23:13:43.684Z,67.30
2022-08-14T23:16:25.187Z,67.50
2022-08-14T23:18:53.846Z,67.40
2022-08-14T23:21:29.175Z,67.30
2022-08-14T23:23:57.389Z,67.40
2022-08-14T23:26:49.059Z,67.50
2022-08-14T23:29:20.629Z,67.60
2022-08-14T23:31:55.111Z,67.50
2022-08-14T23:34:29.367Z,67.50
2022-08-14T23:36:57.402Z,67.70
2022-08-14T23:39:39.073Z,67.90
2022-08-14T23:42:08.555Z,67.70
2022-08-14T23:44:45.897Z,67.40
2022-08-14T23:47:26.400Z,67.50
2022-08-14T23:50:04.197Z,67.60
2022-08-14T23:52:56.257Z,67.30
2022-08-14T23:55:32.478Z,67.20
2022-08-14T23:58:07.835Z,67.30
